sensor_id;sensor_type;location;lat;lon;timestamp;P1;durP1;ratioP1;P2;durP2;ratioP2
18716;SDS011;9487;50.892;6.906;2023-04-08T00:00:04;25.27;;;15.53;;
18716;SDS011;9487;50.892;6.906;2023-04-08T00:02:31;26.10;;;16.50;;
18716;SDS011;9487;50.892;6.906;2023-04-08T00:04:58;26.17;;;16.37;;
18716;SDS011;9487;50.892;6.906;2023-04-08T00:07:25;27.83;;;16.87;;
18716;SDS011;9487;50.892;6.906;2023-04-08T00:09:52;26.33;;;15.70;;
18716;SDS011;9487;50.892;6.906;2023-04-08T00:12:19;22.80;;;14.90;;
18716;SDS011;9487;50.892;6.906;2023-04-08T00:14:48;20.23;;;14.27;;
18716;SDS011;9487;50.892;6.906;2023-04-08T00:17:14;22.90;;;14.97;;
18716;SDS011;9487;50.892;6.906;2023-04-08T00:19:42;25.07;;;15.27;;
18716;SDS011;9487;50.892;6.906;2023-04-08T00:22:09;21.27;;;15.07;;
18716;SDS011;9487;50.892;6.906;2023-04-08T00:24:35;21.67;;;14.80;;
18716;SDS011;9487;50.892;6.906;2023-04-08T00:27:04;20.17;;;14.43;;
18716;SDS011;9487;50.892;6.906;2023-04-08T00:29:31;26.57;;;15.03;;
18716;SDS011;9487;50.892;6.906;2023-04-08T00:31:59;22.47;;;14.60;;
18716;SDS011;9487;50.892;6.906;2023-04-08T00:34:26;23.17;;;14.97;;
18716;SDS011;9487;50.892;6.906;2023-04-08T00:36:53;26.37;;;15.83;;
18716;SDS011;9487;50.892;6.906;2023-04-08T00:39:20;23.20;;;15.50;;
18716;SDS011;9487;50.892;6.906;2023-04-08T00:41:47;20.97;;;14.93;;
18716;SDS011;9487;50.892;6.906;2023-04-08T00:44:14;25.50;;;15.03;;
18716;SDS011;9487;50.892;6.906;2023-04-08T00:46:41;25.27;;;16.43;;
18716;SDS011;9487;50.892;6.906;2023-04-08T00:49:09;28.43;;;16.23;;
18716;SDS011;9487;50.892;6.906;2023-04-08T00:51:36;22.40;;;15.20;;
18716;SDS011;9487;50.892;6.906;2023-04-08T00:54:03;23.87;;;15.43;;
18716;SDS011;9487;50.892;6.906;2023-04-08T00:56:31;21.77;;;15.13;;
18716;SDS011;9487;50.892;6.906;2023-04-08T00:58:59;22.77;;;15.53;;
18716;SDS011;9487;50.892;6.906;2023-04-08T01:01:28;24.40;;;15.77;;
18716;SDS011;9487;50.892;6.906;2023-04-08T01:04:01;18.83;;;13.73;;
18716;SDS011;9487;50.892;6.906;2023-04-08T01:06:37;21.60;;;15.17;;
18716;SDS011;9487;50.892;6.906;2023-04-08T01:09:07;21.50;;;14.87;;
18716;SDS011;9487;50.892;6.906;2023-04-08T01:11:35;23.87;;;15.60;;
18716;SDS011;9487;50.892;6.906;2023-04-08T01:14:05;19.93;;;15.53;;
18716;SDS011;9487;50.892;6.906;2023-04-08T01:16:35;23.23;;;15.90;;
18716;SDS011;9487;50.892;6.906;2023-04-08T01:19:03;26.73;;;16.80;;
18716;SDS011;9487;50.892;6.906;2023-04-08T01:21:33;24.77;;;17.23;;
18716;SDS011;9487;50.892;6.906;2023-04-08T01:24:05;25.67;;;17.20;;
18716;SDS011;9487;50.892;6.906;2023-04-08T01:26:37;23.53;;;18.07;;
18716;SDS011;9487;50.892;6.906;2023-04-08T01:29:06;23.83;;;17.43;;
18716;SDS011;9487;50.892;6.906;2023-04-08T01:31:33;27.60;;;18.17;;
18716;SDS011;9487;50.892;6.906;2023-04-08T01:34:02;21.77;;;16.73;;
18716;SDS011;9487;50.892;6.906;2023-04-08T01:36:30;25.50;;;17.93;;
18716;SDS011;9487;50.892;6.906;2023-04-08T01:38:58;21.70;;;16.23;;
18716;SDS011;9487;50.892;6.906;2023-04-08T01:41:27;26.37;;;18.03;;
18716;SDS011;9487;50.892;6.906;2023-04-08T01:43:56;23.30;;;18.03;;
18716;SDS011;9487;50.892;6.906;2023-04-08T01:46:24;27.87;;;18.47;;
18716;SDS011;9487;50.892;6.906;2023-04-08T01:48:52;32.33;;;18.43;;
18716;SDS011;9487;50.892;6.906;2023-04-08T01:51:20;21.80;;;18.23;;
18716;SDS011;9487;50.892;6.906;2023-04-08T01:53:48;26.87;;;18.63;;
18716;SDS011;9487;50.892;6.906;2023-04-08T01:56:15;26.83;;;18.40;;
18716;SDS011;9487;50.892;6.906;2023-04-08T01:58:42;27.93;;;19.03;;
18716;SDS011;9487;50.892;6.906;2023-04-08T02:01:15;30.57;;;19.90;;
18716;SDS011;9487;50.892;6.906;2023-04-08T02:03:45;32.77;;;21.07;;
18716;SDS011;9487;50.892;6.906;2023-04-08T02:06:16;27.23;;;20.83;;
18716;SDS011;9487;50.892;6.906;2023-04-08T02:08:42;34.23;;;22.27;;
18716;SDS011;9487;50.892;6.906;2023-04-08T02:11:10;32.33;;;22.03;;
18716;SDS011;9487;50.892;6.906;2023-04-08T02:13:37;33.90;;;21.77;;
18716;SDS011;9487;50.892;6.906;2023-04-08T02:16:05;31.80;;;23.23;;
18716;SDS011;9487;50.892;6.906;2023-04-08T02:18:39;29.50;;;22.33;;
18716;SDS011;9487;50.892;6.906;2023-04-08T02:21:12;36.30;;;23.80;;
18716;SDS011;9487;50.892;6.906;2023-04-08T02:23:40;33.63;;;23.77;;
18716;SDS011;9487;50.892;6.906;2023-04-08T02:26:12;38.70;;;24.70;;
18716;SDS011;9487;50.892;6.906;2023-04-08T02:28:40;37.23;;;24.03;;
18716;SDS011;9487;50.892;6.906;2023-04-08T02:31:09;36.60;;;24.40;;
18716;SDS011;9487;50.892;6.906;2023-04-08T02:33:39;34.30;;;24.90;;
18716;SDS011;9487;50.892;6.906;2023-04-08T02:36:07;39.90;;;26.23;;
18716;SDS011;9487;50.892;6.906;2023-04-08T02:38:36;35.50;;;24.80;;
18716;SDS011;9487;50.892;6.906;2023-04-08T02:41:03;44.13;;;25.83;;
18716;SDS011;9487;50.892;6.906;2023-04-08T02:43:30;40.00;;;25.27;;
18716;SDS011;9487;50.892;6.906;2023-04-08T02:45:57;35.77;;;23.80;;
18716;SDS011;9487;50.892;6.906;2023-04-08T02:48:27;36.30;;;24.87;;
18716;SDS011;9487;50.892;6.906;2023-04-08T02:50:55;38.20;;;25.23;;
18716;SDS011;9487;50.892;6.906;2023-04-08T02:53:22;38.90;;;24.70;;
18716;SDS011;9487;50.892;6.906;2023-04-08T02:55:49;36.00;;;25.10;;
18716;SDS011;9487;50.892;6.906;2023-04-08T02:58:16;34.47;;;24.57;;
18716;SDS011;9487;50.892;6.906;2023-04-08T03:00:43;36.40;;;24.20;;
18716;SDS011;9487;50.892;6.906;2023-04-08T03:03:10;35.47;;;25.30;;
18716;SDS011;9487;50.892;6.906;2023-04-08T03:05:36;34.80;;;24.87;;
18716;SDS011;9487;50.892;6.906;2023-04-08T03:08:05;37.13;;;26.17;;
18716;SDS011;9487;50.892;6.906;2023-04-08T03:10:32;32.17;;;24.20;;
18716;SDS011;9487;50.892;6.906;2023-04-08T03:12:58;36.77;;;25.63;;
18716;SDS011;9487;50.892;6.906;2023-04-08T03:15:25;33.93;;;25.13;;
18716;SDS011;9487;50.892;6.906;2023-04-08T03:17:52;37.20;;;26.07;;
18716;SDS011;9487;50.892;6.906;2023-04-08T03:20:19;36.73;;;26.33;;
18716;SDS011;9487;50.892;6.906;2023-04-08T03:22:46;39.73;;;26.00;;
18716;SDS011;9487;50.892;6.906;2023-04-08T03:25:14;33.37;;;25.20;;
18716;SDS011;9487;50.892;6.906;2023-04-08T03:27:41;39.43;;;25.47;;
18716;SDS011;9487;50.892;6.906;2023-04-08T03:30:07;38.57;;;25.67;;
18716;SDS011;9487;50.892;6.906;2023-04-08T03:32:34;36.43;;;26.83;;
18716;SDS011;9487;50.892;6.906;2023-04-08T03:35:01;35.30;;;27.63;;
18716;SDS011;9487;50.892;6.906;2023-04-08T03:37:28;36.80;;;26.73;;
18716;SDS011;9487;50.892;6.906;2023-04-08T03:39:55;40.10;;;28.87;;
18716;SDS011;9487;50.892;6.906;2023-04-08T03:42:23;38.70;;;27.83;;
18716;SDS011;9487;50.892;6.906;2023-04-08T03:44:51;36.90;;;27.87;;
18716;SDS011;9487;50.892;6.906;2023-04-08T03:47:18;35.63;;;27.20;;
18716;SDS011;9487;50.892;6.906;2023-04-08T03:49:44;34.27;;;28.00;;
18716;SDS011;9487;50.892;6.906;2023-04-08T03:52:11;37.13;;;28.30;;
18716;SDS011;9487;50.892;6.906;2023-04-08T03:54:38;40.10;;;29.87;;
18716;SDS011;9487;50.892;6.906;2023-04-08T03:57:05;39.07;;;29.17;;
18716;SDS011;9487;50.892;6.906;2023-04-08T03:59:33;42.67;;;31.13;;
18716;SDS011;9487;50.892;6.906;2023-04-08T04:02:00;48.07;;;32.37;;
18716;SDS011;9487;50.892;6.906;2023-04-08T04:04:27;47.37;;;32.53;;
18716;SDS011;9487;50.892;6.906;2023-04-08T04:06:54;54.20;;;34.60;;
18716;SDS011;9487;50.892;6.906;2023-04-08T04:09:21;51.97;;;34.63;;
18716;SDS011;9487;50.892;6.906;2023-04-08T04:11:48;52.40;;;35.10;;
18716;SDS011;9487;50.892;6.906;2023-04-08T04:14:14;54.23;;;35.30;;
18716;SDS011;9487;50.892;6.906;2023-04-08T04:16:42;52.13;;;35.60;;
18716;SDS011;9487;50.892;6.906;2023-04-08T04:19:09;55.47;;;37.13;;
18716;SDS011;9487;50.892;6.906;2023-04-08T04:21:36;54.07;;;34.93;;
18716;SDS011;9487;50.892;6.906;2023-04-08T04:24:03;54.90;;;37.00;;
18716;SDS011;9487;50.892;6.906;2023-04-08T04:26:30;50.17;;;35.17;;
18716;SDS011;9487;50.892;6.906;2023-04-08T04:28:57;47.23;;;32.50;;
18716;SDS011;9487;50.892;6.906;2023-04-08T04:31:24;50.30;;;34.63;;
18716;SDS011;9487;50.892;6.906;2023-04-08T04:33:52;52.60;;;35.67;;
18716;SDS011;9487;50.892;6.906;2023-04-08T04:36:19;55.10;;;34.57;;
18716;SDS011;9487;50.892;6.906;2023-04-08T04:38:46;47.63;;;32.90;;
18716;SDS011;9487;50.892;6.906;2023-04-08T04:41:14;53.57;;;34.50;;
18716;SDS011;9487;50.892;6.906;2023-04-08T04:43:41;52.30;;;35.43;;
18716;SDS011;9487;50.892;6.906;2023-04-08T04:46:07;54.23;;;35.73;;
18716;SDS011;9487;50.892;6.906;2023-04-08T04:48:34;57.30;;;37.70;;
18716;SDS011;9487;50.892;6.906;2023-04-08T04:51:03;57.83;;;36.40;;
18716;SDS011;9487;50.892;6.906;2023-04-08T04:53:31;50.83;;;34.57;;
18716;SDS011;9487;50.892;6.906;2023-04-08T04:55:58;51.73;;;34.50;;
18716;SDS011;9487;50.892;6.906;2023-04-08T04:58:25;49.53;;;34.40;;
18716;SDS011;9487;50.892;6.906;2023-04-08T05:00:52;52.47;;;31.93;;
18716;SDS011;9487;50.892;6.906;2023-04-08T05:03:19;47.77;;;32.33;;
18716;SDS011;9487;50.892;6.906;2023-04-08T05:05:49;53.03;;;33.70;;
18716;SDS011;9487;50.892;6.906;2023-04-08T05:08:17;52.17;;;34.07;;
18716;SDS011;9487;50.892;6.906;2023-04-08T05:10:44;55.33;;;34.90;;
18716;SDS011;9487;50.892;6.906;2023-04-08T05:13:14;47.80;;;33.70;;
18716;SDS011;9487;50.892;6.906;2023-04-08T05:15:41;55.70;;;35.30;;
18716;SDS011;9487;50.892;6.906;2023-04-08T05:18:07;44.67;;;31.87;;
18716;SDS011;9487;50.892;6.906;2023-04-08T05:20:34;56.83;;;34.67;;
18716;SDS011;9487;50.892;6.906;2023-04-08T05:23:01;56.60;;;35.80;;
18716;SDS011;9487;50.892;6.906;2023-04-08T05:25:29;56.60;;;35.97;;
18716;SDS011;9487;50.892;6.906;2023-04-08T05:27:56;55.03;;;34.70;;
18716;SDS011;9487;50.892;6.906;2023-04-08T05:30:23;52.63;;;33.53;;
18716;SDS011;9487;50.892;6.906;2023-04-08T05:32:50;53.70;;;33.70;;
18716;SDS011;9487;50.892;6.906;2023-04-08T05:35:17;49.83;;;33.33;;
18716;SDS011;9487;50.892;6.906;2023-04-08T05:37:43;56.83;;;35.00;;
18716;SDS011;9487;50.892;6.906;2023-04-08T05:40:10;56.07;;;33.70;;
18716;SDS011;9487;50.892;6.906;2023-04-08T05:42:39;52.60;;;34.03;;
18716;SDS011;9487;50.892;6.906;2023-04-08T05:45:06;52.50;;;34.90;;
18716;SDS011;9487;50.892;6.906;2023-04-08T05:47:34;54.10;;;33.57;;
18716;SDS011;9487;50.892;6.906;2023-04-08T05:50:01;52.57;;;34.97;;
18716;SDS011;9487;50.892;6.906;2023-04-08T05:52:27;47.70;;;31.77;;
18716;SDS011;9487;50.892;6.906;2023-04-08T05:54:54;47.43;;;32.20;;
18716;SDS011;9487;50.892;6.906;2023-04-08T05:57:21;48.27;;;32.90;;
18716;SDS011;9487;50.892;6.906;2023-04-08T05:59:49;47.50;;;32.17;;
18716;SDS011;9487;50.892;6.906;2023-04-08T06:02:17;48.60;;;31.40;;
18716;SDS011;9487;50.892;6.906;2023-04-08T06:04:44;46.17;;;30.63;;
18716;SDS011;9487;50.892;6.906;2023-04-08T06:07:11;51.17;;;33.33;;
18716;SDS011;9487;50.892;6.906;2023-04-08T06:09:37;52.60;;;32.60;;
18716;SDS011;9487;50.892;6.906;2023-04-08T06:12:04;50.97;;;33.47;;
18716;SDS011;9487;50.892;6.906;2023-04-08T06:14:31;49.07;;;31.47;;
18716;SDS011;9487;50.892;6.906;2023-04-08T06:16:59;45.93;;;30.90;;
18716;SDS011;9487;50.892;6.906;2023-04-08T06:19:26;46.87;;;32.07;;
18716;SDS011;9487;50.892;6.906;2023-04-08T06:21:53;49.13;;;32.00;;
18716;SDS011;9487;50.892;6.906;2023-04-08T06:24:23;54.53;;;32.33;;
18716;SDS011;9487;50.892;6.906;2023-04-08T06:26:50;47.80;;;30.77;;
18716;SDS011;9487;50.892;6.906;2023-04-08T06:29:18;47.80;;;30.30;;
18716;SDS011;9487;50.892;6.906;2023-04-08T06:31:45;49.83;;;30.30;;
18716;SDS011;9487;50.892;6.906;2023-04-08T06:34:14;46.20;;;30.77;;
18716;SDS011;9487;50.892;6.906;2023-04-08T06:36:41;48.17;;;28.60;;
18716;SDS011;9487;50.892;6.906;2023-04-08T06:39:08;50.93;;;31.43;;
18716;SDS011;9487;50.892;6.906;2023-04-08T06:41:35;53.90;;;32.60;;
18716;SDS011;9487;50.892;6.906;2023-04-08T06:44:02;53.83;;;33.67;;
18716;SDS011;9487;50.892;6.906;2023-04-08T06:46:28;50.20;;;32.90;;
18716;SDS011;9487;50.892;6.906;2023-04-08T06:48:55;52.93;;;32.60;;
18716;SDS011;9487;50.892;6.906;2023-04-08T06:51:23;53.33;;;34.37;;
18716;SDS011;9487;50.892;6.906;2023-04-08T06:53:51;57.63;;;34.20;;
18716;SDS011;9487;50.892;6.906;2023-04-08T06:56:18;50.67;;;31.27;;
18716;SDS011;9487;50.892;6.906;2023-04-08T06:58:47;55.00;;;34.27;;
18716;SDS011;9487;50.892;6.906;2023-04-08T07:01:13;51.67;;;33.70;;
18716;SDS011;9487;50.892;6.906;2023-04-08T07:03:41;52.27;;;32.80;;
18716;SDS011;9487;50.892;6.906;2023-04-08T07:06:08;53.90;;;33.50;;
18716;SDS011;9487;50.892;6.906;2023-04-08T07:08:36;49.23;;;31.70;;
18716;SDS011;9487;50.892;6.906;2023-04-08T07:11:03;52.57;;;33.10;;
18716;SDS011;9487;50.892;6.906;2023-04-08T07:13:30;56.00;;;33.83;;
18716;SDS011;9487;50.892;6.906;2023-04-08T07:15:57;61.37;;;37.83;;
18716;SDS011;9487;50.892;6.906;2023-04-08T07:18:24;61.23;;;37.30;;
18716;SDS011;9487;50.892;6.906;2023-04-08T07:20:51;62.17;;;38.03;;
18716;SDS011;9487;50.892;6.906;2023-04-08T07:23:18;58.70;;;37.57;;
18716;SDS011;9487;50.892;6.906;2023-04-08T07:25:47;59.87;;;37.37;;
18716;SDS011;9487;50.892;6.906;2023-04-08T07:28:13;59.73;;;36.77;;
18716;SDS011;9487;50.892;6.906;2023-04-08T07:30:40;56.87;;;36.60;;
18716;SDS011;9487;50.892;6.906;2023-04-08T07:33:07;56.47;;;36.00;;
18716;SDS011;9487;50.892;6.906;2023-04-08T07:35:34;57.97;;;37.77;;
18716;SDS011;9487;50.892;6.906;2023-04-08T07:38:01;57.30;;;37.80;;
18716;SDS011;9487;50.892;6.906;2023-04-08T07:40:28;56.77;;;36.53;;
18716;SDS011;9487;50.892;6.906;2023-04-08T07:42:57;56.53;;;36.57;;
18716;SDS011;9487;50.892;6.906;2023-04-08T07:45:23;57.03;;;37.93;;
18716;SDS011;9487;50.892;6.906;2023-04-08T07:47:50;53.10;;;35.77;;
18716;SDS011;9487;50.892;6.906;2023-04-08T07:50:17;55.80;;;36.43;;
18716;SDS011;9487;50.892;6.906;2023-04-08T07:52:44;55.63;;;37.47;;
18716;SDS011;9487;50.892;6.906;2023-04-08T07:55:11;54.03;;;37.13;;
18716;SDS011;9487;50.892;6.906;2023-04-08T07:57:37;50.40;;;36.33;;
18716;SDS011;9487;50.892;6.906;2023-04-08T08:00:06;50.73;;;37.30;;
18716;SDS011;9487;50.892;6.906;2023-04-08T08:02:34;51.57;;;36.47;;
18716;SDS011;9487;50.892;6.906;2023-04-08T08:05:00;45.93;;;33.63;;
18716;SDS011;9487;50.892;6.906;2023-04-08T08:07:28;46.63;;;35.03;;
18716;SDS011;9487;50.892;6.906;2023-04-08T08:09:55;46.40;;;35.20;;
18716;SDS011;9487;50.892;6.906;2023-04-08T08:12:22;49.07;;;36.53;;
18716;SDS011;9487;50.892;6.906;2023-04-08T08:14:49;41.43;;;31.77;;
18716;SDS011;9487;50.892;6.906;2023-04-08T08:17:20;38.73;;;30.33;;
18716;SDS011;9487;50.892;6.906;2023-04-08T08:19:46;42.00;;;31.77;;
18716;SDS011;9487;50.892;6.906;2023-04-08T08:22:13;42.07;;;31.47;;
18716;SDS011;9487;50.892;6.906;2023-04-08T08:24:40;42.50;;;32.37;;
18716;SDS011;9487;50.892;6.906;2023-04-08T08:27:08;44.97;;;33.10;;
18716;SDS011;9487;50.892;6.906;2023-04-08T08:29:35;42.97;;;31.83;;
18716;SDS011;9487;50.892;6.906;2023-04-08T08:32:02;38.67;;;32.10;;
18716;SDS011;9487;50.892;6.906;2023-04-08T08:34:30;43.33;;;34.93;;
18716;SDS011;9487;50.892;6.906;2023-04-08T08:36:57;42.97;;;33.20;;
18716;SDS011;9487;50.892;6.906;2023-04-08T08:39:24;45.10;;;34.87;;
18716;SDS011;9487;50.892;6.906;2023-04-08T08:41:51;43.33;;;33.33;;
18716;SDS011;9487;50.892;6.906;2023-04-08T08:44:18;42.50;;;34.00;;
18716;SDS011;9487;50.892;6.906;2023-04-08T08:46:45;43.13;;;34.67;;
18716;SDS011;9487;50.892;6.906;2023-04-08T08:49:13;44.30;;;34.03;;
18716;SDS011;9487;50.892;6.906;2023-04-08T08:51:41;43.87;;;34.47;;
18716;SDS011;9487;50.892;6.906;2023-04-08T08:54:12;42.87;;;33.83;;
18716;SDS011;9487;50.892;6.906;2023-04-08T08:56:40;43.53;;;34.27;;
18716;SDS011;9487;50.892;6.906;2023-04-08T08:59:07;42.20;;;34.50;;
18716;SDS011;9487;50.892;6.906;2023-04-08T09:01:34;41.30;;;33.80;;
18716;SDS011;9487;50.892;6.906;2023-04-08T09:04:06;41.50;;;34.43;;
18716;SDS011;9487;50.892;6.906;2023-04-08T09:06:34;39.47;;;32.10;;
18716;SDS011;9487;50.892;6.906;2023-04-08T09:09:03;38.97;;;32.50;;
18716;SDS011;9487;50.892;6.906;2023-04-08T09:11:34;41.13;;;32.67;;
18716;SDS011;9487;50.892;6.906;2023-04-08T09:14:02;38.17;;;33.53;;
18716;SDS011;9487;50.892;6.906;2023-04-08T09:16:30;42.60;;;34.47;;
18716;SDS011;9487;50.892;6.906;2023-04-08T09:19:06;39.17;;;33.87;;
18716;SDS011;9487;50.892;6.906;2023-04-08T09:21:34;39.77;;;33.67;;
18716;SDS011;9487;50.892;6.906;2023-04-08T09:24:03;38.60;;;33.67;;
18716;SDS011;9487;50.892;6.906;2023-04-08T09:26:30;40.17;;;33.10;;
18716;SDS011;9487;50.892;6.906;2023-04-08T09:28:57;37.57;;;32.00;;
18716;SDS011;9487;50.892;6.906;2023-04-08T09:31:26;38.77;;;32.30;;
18716;SDS011;9487;50.892;6.906;2023-04-08T09:33:55;39.53;;;33.50;;
18716;SDS011;9487;50.892;6.906;2023-04-08T09:36:22;40.03;;;34.03;;
18716;SDS011;9487;50.892;6.906;2023-04-08T09:38:51;42.30;;;35.23;;
18716;SDS011;9487;50.892;6.906;2023-04-08T09:41:20;42.13;;;33.93;;
18716;SDS011;9487;50.892;6.906;2023-04-08T09:43:49;43.90;;;34.50;;
18716;SDS011;9487;50.892;6.906;2023-04-08T09:46:17;41.57;;;35.27;;
18716;SDS011;9487;50.892;6.906;2023-04-08T09:48:48;47.37;;;37.70;;
18716;SDS011;9487;50.892;6.906;2023-04-08T09:51:20;49.73;;;39.13;;
18716;SDS011;9487;50.892;6.906;2023-04-08T09:53:52;49.80;;;39.07;;
18716;SDS011;9487;50.892;6.906;2023-04-08T09:56:26;56.40;;;42.37;;
18716;SDS011;9487;50.892;6.906;2023-04-08T09:59:01;58.27;;;44.17;;
18716;SDS011;9487;50.892;6.906;2023-04-08T10:01:36;59.87;;;42.17;;
18716;SDS011;9487;50.892;6.906;2023-04-08T10:04:04;64.37;;;44.13;;
18716;SDS011;9487;50.892;6.906;2023-04-08T10:06:34;66.13;;;45.70;;
18716;SDS011;9487;50.892;6.906;2023-04-08T10:09:02;69.07;;;47.53;;
18716;SDS011;9487;50.892;6.906;2023-04-08T10:11:31;67.30;;;46.57;;
18716;SDS011;9487;50.892;6.906;2023-04-08T10:13:58;70.17;;;46.93;;
18716;SDS011;9487;50.892;6.906;2023-04-08T10:16:25;73.20;;;48.13;;
18716;SDS011;9487;50.892;6.906;2023-04-08T10:18:54;72.27;;;48.30;;
18716;SDS011;9487;50.892;6.906;2023-04-08T10:21:34;69.80;;;48.20;;
18716;SDS011;9487;50.892;6.906;2023-04-08T10:24:05;68.10;;;47.03;;
18716;SDS011;9487;50.892;6.906;2023-04-08T10:26:35;68.93;;;48.03;;
18716;SDS011;9487;50.892;6.906;2023-04-08T10:29:28;63.50;;;45.23;;
18716;SDS011;9487;50.892;6.906;2023-04-08T10:31:56;62.03;;;44.17;;
18716;SDS011;9487;50.892;6.906;2023-04-08T10:34:24;69.87;;;47.33;;
18716;SDS011;9487;50.892;6.906;2023-04-08T10:36:52;62.87;;;43.93;;
18716;SDS011;9487;50.892;6.906;2023-04-08T10:39:20;64.27;;;46.00;;
18716;SDS011;9487;50.892;6.906;2023-04-08T10:41:49;60.53;;;43.83;;
18716;SDS011;9487;50.892;6.906;2023-04-08T10:44:16;59.80;;;43.87;;
18716;SDS011;9487;50.892;6.906;2023-04-08T10:46:44;56.67;;;41.83;;
18716;SDS011;9487;50.892;6.906;2023-04-08T10:49:11;58.33;;;44.13;;
18716;SDS011;9487;50.892;6.906;2023-04-08T10:51:38;58.33;;;43.37;;
18716;SDS011;9487;50.892;6.906;2023-04-08T10:54:05;52.40;;;40.90;;
18716;SDS011;9487;50.892;6.906;2023-04-08T10:56:33;53.50;;;40.67;;
18716;SDS011;9487;50.892;6.906;2023-04-08T10:59:03;48.60;;;40.20;;
18716;SDS011;9487;50.892;6.906;2023-04-08T11:01:36;51.23;;;40.43;;
18716;SDS011;9487;50.892;6.906;2023-04-08T11:04:06;43.77;;;37.77;;
18716;SDS011;9487;50.892;6.906;2023-04-08T11:06:37;41.90;;;37.07;;
18716;SDS011;9487;50.892;6.906;2023-04-08T11:09:04;44.47;;;39.47;;
18716;SDS011;9487;50.892;6.906;2023-04-08T11:11:30;44.27;;;39.47;;
18716;SDS011;9487;50.892;6.906;2023-04-08T11:13:57;43.10;;;38.13;;
18716;SDS011;9487;50.892;6.906;2023-04-08T11:16:25;42.70;;;37.97;;
18716;SDS011;9487;50.892;6.906;2023-04-08T11:18:53;41.00;;;36.73;;
18716;SDS011;9487;50.892;6.906;2023-04-08T11:21:22;40.93;;;36.63;;
18716;SDS011;9487;50.892;6.906;2023-04-08T11:23:49;39.27;;;35.17;;
18716;SDS011;9487;50.892;6.906;2023-04-08T11:26:17;36.83;;;33.03;;
18716;SDS011;9487;50.892;6.906;2023-04-08T11:28:45;37.73;;;34.00;;
18716;SDS011;9487;50.892;6.906;2023-04-08T11:31:13;36.37;;;32.77;;
18716;SDS011;9487;50.892;6.906;2023-04-08T11:33:45;35.60;;;31.90;;
18716;SDS011;9487;50.892;6.906;2023-04-08T11:36:13;34.83;;;31.43;;
18716;SDS011;9487;50.892;6.906;2023-04-08T11:38:41;34.50;;;31.20;;
18716;SDS011;9487;50.892;6.906;2023-04-08T11:41:08;34.60;;;31.13;;
18716;SDS011;9487;50.892;6.906;2023-04-08T11:43:35;34.27;;;30.87;;
18716;SDS011;9487;50.892;6.906;2023-04-08T11:46:07;34.07;;;30.40;;
18716;SDS011;9487;50.892;6.906;2023-04-08T11:48:36;36.63;;;32.93;;
18716;SDS011;9487;50.892;6.906;2023-04-08T11:51:06;34.53;;;30.97;;
18716;SDS011;9487;50.892;6.906;2023-04-08T11:53:34;35.20;;;31.00;;
18716;SDS011;9487;50.892;6.906;2023-04-08T11:58:43;35.87;;;32.07;;
18716;SDS011;9487;50.892;6.906;2023-04-08T12:01:10;35.30;;;31.60;;
18716;SDS011;9487;50.892;6.906;2023-04-08T12:03:37;35.23;;;31.40;;
18716;SDS011;9487;50.892;6.906;2023-04-08T12:06:06;36.63;;;32.77;;
18716;SDS011;9487;50.892;6.906;2023-04-08T12:08:33;35.57;;;31.77;;
18716;SDS011;9487;50.892;6.906;2023-04-08T12:11:00;39.13;;;33.13;;
18716;SDS011;9487;50.892;6.906;2023-04-08T12:13:27;41.40;;;32.03;;
18716;SDS011;9487;50.892;6.906;2023-04-08T12:15:55;44.00;;;34.47;;
18716;SDS011;9487;50.892;6.906;2023-04-08T12:18:22;45.57;;;34.83;;
18716;SDS011;9487;50.892;6.906;2023-04-08T12:20:48;42.23;;;33.73;;
18716;SDS011;9487;50.892;6.906;2023-04-08T12:23:17;41.17;;;32.70;;
18716;SDS011;9487;50.892;6.906;2023-04-08T12:25:43;41.87;;;32.47;;
18716;SDS011;9487;50.892;6.906;2023-04-08T12:28:10;41.00;;;32.07;;
18716;SDS011;9487;50.892;6.906;2023-04-08T12:30:37;43.70;;;33.03;;
18716;SDS011;9487;50.892;6.906;2023-04-08T12:33:04;44.23;;;31.73;;
18716;SDS011;9487;50.892;6.906;2023-04-08T12:35:31;42.07;;;31.83;;
18716;SDS011;9487;50.892;6.906;2023-04-08T12:37:57;47.57;;;33.23;;
18716;SDS011;9487;50.892;6.906;2023-04-08T12:40:26;44.57;;;33.50;;
18716;SDS011;9487;50.892;6.906;2023-04-08T12:42:53;44.97;;;32.50;;
18716;SDS011;9487;50.892;6.906;2023-04-08T12:45:19;41.00;;;31.23;;
18716;SDS011;9487;50.892;6.906;2023-04-08T12:47:46;43.80;;;31.93;;
18716;SDS011;9487;50.892;6.906;2023-04-08T12:50:13;42.70;;;31.67;;
18716;SDS011;9487;50.892;6.906;2023-04-08T12:52:40;40.97;;;32.13;;
18716;SDS011;9487;50.892;6.906;2023-04-08T12:55:07;46.10;;;33.13;;
18716;SDS011;9487;50.892;6.906;2023-04-08T12:57:36;41.83;;;31.30;;
18716;SDS011;9487;50.892;6.906;2023-04-08T13:00:03;44.00;;;34.33;;
18716;SDS011;9487;50.892;6.906;2023-04-08T13:02:31;44.93;;;32.27;;
18716;SDS011;9487;50.892;6.906;2023-04-08T13:04:57;40.00;;;30.00;;
18716;SDS011;9487;50.892;6.906;2023-04-08T13:07:24;36.20;;;28.50;;
18716;SDS011;9487;50.892;6.906;2023-04-08T13:09:51;37.40;;;29.00;;
18716;SDS011;9487;50.892;6.906;2023-04-08T13:12:18;39.30;;;30.57;;
18716;SDS011;9487;50.892;6.906;2023-04-08T13:14:46;41.27;;;30.33;;
18716;SDS011;9487;50.892;6.906;2023-04-08T13:17:13;43.87;;;32.57;;
18716;SDS011;9487;50.892;6.906;2023-04-08T13:19:39;43.73;;;32.13;;
18716;SDS011;9487;50.892;6.906;2023-04-08T13:22:06;44.27;;;32.90;;
18716;SDS011;9487;50.892;6.906;2023-04-08T13:24:33;43.37;;;32.20;;
18716;SDS011;9487;50.892;6.906;2023-04-08T13:27:00;43.27;;;32.97;;
18716;SDS011;9487;50.892;6.906;2023-04-08T13:29:27;43.03;;;33.07;;
18716;SDS011;9487;50.892;6.906;2023-04-08T13:31:55;42.67;;;32.67;;
18716;SDS011;9487;50.892;6.906;2023-04-08T13:34:22;41.40;;;31.80;;
18716;SDS011;9487;50.892;6.906;2023-04-08T13:36:49;44.93;;;32.93;;
18716;SDS011;9487;50.892;6.906;2023-04-08T13:39:16;42.97;;;33.70;;
18716;SDS011;9487;50.892;6.906;2023-04-08T13:41:43;44.07;;;31.93;;
18716;SDS011;9487;50.892;6.906;2023-04-08T13:44:10;41.00;;;32.33;;
18716;SDS011;9487;50.892;6.906;2023-04-08T13:46:36;40.10;;;31.10;;
18716;SDS011;9487;50.892;6.906;2023-04-08T13:49:05;34.57;;;27.07;;
18716;SDS011;9487;50.892;6.906;2023-04-08T13:51:31;38.67;;;29.17;;
18716;SDS011;9487;50.892;6.906;2023-04-08T13:53:58;39.23;;;30.10;;
18716;SDS011;9487;50.892;6.906;2023-04-08T13:56:25;44.07;;;31.83;;
18716;SDS011;9487;50.892;6.906;2023-04-08T13:58:52;45.20;;;33.80;;
18716;SDS011;9487;50.892;6.906;2023-04-08T14:01:18;43.60;;;34.00;;
18716;SDS011;9487;50.892;6.906;2023-04-08T14:03:45;44.63;;;34.97;;
18716;SDS011;9487;50.892;6.906;2023-04-08T14:06:15;48.20;;;34.57;;
18716;SDS011;9487;50.892;6.906;2023-04-08T14:08:41;46.20;;;33.90;;
18716;SDS011;9487;50.892;6.906;2023-04-08T14:11:08;45.97;;;33.57;;
18716;SDS011;9487;50.892;6.906;2023-04-08T14:13:35;44.90;;;32.43;;
18716;SDS011;9487;50.892;6.906;2023-04-08T14:16:02;39.50;;;30.27;;
18716;SDS011;9487;50.892;6.906;2023-04-08T14:18:29;23.97;;;19.90;;
18716;SDS011;9487;50.892;6.906;2023-04-08T14:20:56;17.63;;;14.97;;
18716;SDS011;9487;50.892;6.906;2023-04-08T14:23:24;17.90;;;15.37;;
18716;SDS011;9487;50.892;6.906;2023-04-08T14:25:51;17.00;;;14.80;;
18716;SDS011;9487;50.892;6.906;2023-04-08T14:28:18;15.37;;;13.40;;
18716;SDS011;9487;50.892;6.906;2023-04-08T14:30:44;13.83;;;12.40;;
18716;SDS011;9487;50.892;6.906;2023-04-08T14:33:11;13.20;;;11.90;;
18716;SDS011;9487;50.892;6.906;2023-04-08T14:35:38;12.83;;;11.43;;
18716;SDS011;9487;50.892;6.906;2023-04-08T14:38:05;9.40;;;8.37;;
18716;SDS011;9487;50.892;6.906;2023-04-08T14:40:33;8.50;;;6.57;;